createdAt,value
2022-11-19T00:00:16.452Z,71.62
2022-11-19T00:03:21.199Z,71.68
2022-11-19T00:06:26.160Z,70.96
2022-11-19T00:09:28.708Z,71.93
2022-11-19T00:12:49.894Z,70.81
2022-11-19T00:15:52.627Z,71.87
2022-11-19T00:18:55.277Z,70.19
2022-11-19T00:21:57.715Z,71.19
2022-11-19T00:25:00.417Z,70.69
2022-11-19T00:28:02.906Z,70.48
2022-11-19T00:31:08.880Z,70.28
2022-11-19T00:34:12.192Z,70.41
2022-11-19T00:37:15.050Z,70.10
2022-11-19T00:40:17.659Z,70.61
2022-11-19T00:43:38.661Z,70.38
2022-11-19T00:46:41.061Z,70.52
2022-11-19T00:49:43.677Z,69.97
2022-11-19T00:52:46.169Z,69.42
2022-11-19T00:55:48.677Z,69.02
2022-11-19T00:58:51.723Z,68.58
2022-11-19T01:01:54.099Z,68.46
2022-11-19T01:04:56.950Z,68.18
2022-11-19T01:07:59.519Z,67.79
2022-11-19T01:11:16.861Z,68.32
2022-11-19T01:14:19.479Z,67.91
2022-11-19T01:17:21.945Z,68.09
2022-11-19T01:20:24.506Z,67.61
2022-11-19T01:23:27.391Z,68.07
2022-11-19T01:26:30.733Z,67.30
2022-11-19T01:29:33.118Z,67.75
2022-11-19T01:32:35.886Z,66.97
2022-11-19T01:35:38.321Z,67.52
2022-11-19T01:38:40.808Z,67.07
2022-11-19T01:41:43.166Z,66.71
2022-11-19T01:45:07.121Z,65.85
2022-11-19T01:48:26.418Z,65.69
2022-11-19T01:51:35.594Z,65.56
2022-11-19T01:54:47.067Z,65.66
2022-11-19T01:57:56.253Z,65.31
2022-11-19T02:00:58.950Z,64.89
2022-11-19T02:04:04.199Z,65.77
2022-11-19T02:07:07.726Z,65.89
2022-11-19T02:10:10.255Z,64.29
2022-11-19T02:13:34.543Z,64.83
2022-11-19T02:16:46.127Z,64.58
2022-11-19T02:20:07.857Z,64.89
2022-11-19T02:23:53.099Z,64.29
2022-11-19T02:27:12.098Z,64.92
2022-11-19T02:30:18.803Z,64.38
2022-11-19T02:33:49.701Z,64.42
2022-11-19T02:37:13.401Z,63.96
2022-11-19T02:40:22.824Z,63.66
2022-11-19T02:43:39.111Z,64.20
2022-11-19T02:46:42.495Z,63.27
2022-11-19T02:49:45.318Z,63.27
2022-11-19T02:52:49.034Z,63.65
2022-11-19T02:56:10.025Z,63.15
2022-11-19T02:59:34.531Z,63.23
2022-11-19T03:03:01.130Z,64.26
2022-11-19T03:06:09.078Z,62.88
2022-11-19T03:09:12.205Z,63.07
2022-11-19T03:12:52.682Z,62.79
2022-11-19T03:16:15.476Z,62.80
2022-11-19T03:19:27.890Z,62.73
2022-11-19T03:22:37.855Z,62.40
2022-11-19T03:26:24.090Z,62.49
2022-11-19T03:29:29.175Z,62.80
2022-11-19T03:32:39.351Z,62.41
2022-11-19T03:35:49.664Z,61.97
2022-11-19T03:39:00.866Z,62.52
2022-11-19T03:42:08.290Z,62.54
2022-11-19T03:45:16.547Z,62.20
2022-11-19T03:48:22.362Z,62.54
2022-11-19T03:51:44.771Z,62.19
2022-11-19T03:54:47.715Z,62.27
2022-11-19T03:57:51.419Z,63.25
2022-11-19T04:00:54.294Z,63.51
2022-11-19T04:04:15.535Z,64.02
2022-11-19T04:07:23.185Z,64.87
2022-11-19T04:10:25.771Z,64.19
2022-11-19T04:13:28.216Z,65.01
2022-11-19T04:16:30.852Z,64.58
2022-11-19T04:19:33.875Z,64.03
2022-11-19T04:22:36.550Z,65.15
2022-11-19T04:25:40.425Z,65.75
2022-11-19T04:28:42.795Z,64.83
2022-11-19T04:31:45.284Z,64.33
2022-11-19T04:34:47.661Z,64.71
2022-11-19T04:37:50.034Z,65.59
2022-11-19T04:40:52.531Z,64.75
2022-11-19T04:43:55.031Z,63.83
2022-11-19T04:46:57.597Z,64.58
2022-11-19T04:50:00.031Z,65.27
2022-11-19T04:53:02.577Z,65.52
2022-11-19T04:56:05.753Z,65.40
2022-11-19T04:59:08.387Z,65.17
2022-11-19T05:02:19.719Z,65.67
2022-11-19T05:05:22.172Z,66.13
2022-11-19T05:08:24.762Z,66.23
2022-11-19T05:11:27.490Z,66.85
2022-11-19T05:14:30.659Z,66.24
2022-11-19T05:17:33.269Z,66.31
2022-11-19T05:20:35.768Z,66.20
2022-11-19T05:23:38.478Z,66.44
2022-11-19T05:26:40.845Z,65.56
2022-11-19T05:29:43.526Z,65.73
2022-11-19T05:32:47.263Z,66.36
2022-11-19T05:35:49.860Z,66.99
2022-11-19T05:38:52.428Z,66.49
2022-11-19T05:41:55.016Z,67.17
2022-11-19T05:44:57.416Z,66.88
2022-11-19T05:48:00.009Z,67.75
2022-11-19T05:51:02.785Z,66.41
2022-11-19T05:54:05.375Z,67.54
2022-11-19T05:57:07.798Z,68.31
2022-11-19T06:00:11.215Z,68.42
2022-11-19T06:03:16.485Z,68.58
2022-11-19T06:06:19.080Z,70.68
2022-11-19T06:09:21.829Z,70.98
2022-11-19T06:12:24.493Z,71.93
2022-11-19T06:15:27.055Z,73.98
2022-11-19T06:18:29.748Z,75.36
2022-11-19T06:21:32.251Z,79.65
2022-11-19T06:24:34.689Z,80.83
2022-11-19T06:27:37.183Z,82.60
2022-11-19T06:30:39.570Z,83.93
2022-11-19T06:33:42.355Z,83.88
2022-11-19T06:36:50.125Z,84.26
2022-11-19T06:39:54.203Z,83.21
2022-11-19T06:42:56.741Z,84.37
2022-11-19T06:45:59.353Z,83.75
2022-11-19T06:49:03.809Z,83.79
2022-11-19T06:52:06.474Z,83.15
2022-11-19T06:55:09.264Z,81.82
2022-11-19T06:58:12.010Z,82.59
2022-11-19T07:01:15.335Z,82.90
2022-11-19T07:04:18.000Z,83.12
2022-11-19T07:07:21.457Z,82.59
2022-11-19T07:10:23.948Z,83.28
2022-11-19T07:13:46.573Z,82.08
2022-11-19T07:16:49.011Z,82.94
2022-11-19T07:19:51.431Z,82.26
2022-11-19T07:22:58.929Z,82.73
2022-11-19T07:26:02.278Z,83.07
2022-11-19T07:29:07.225Z,81.60
2022-11-19T07:32:10.374Z,81.77
2022-11-19T07:35:13.105Z,81.23
2022-11-19T07:38:15.784Z,83.23
2022-11-19T07:41:38.801Z,83.59
2022-11-19T07:44:41.459Z,83.29
2022-11-19T07:47:43.976Z,81.01
2022-11-19T07:50:56.323Z,81.17
2022-11-19T07:53:59.109Z,82.37
2022-11-19T07:57:01.595Z,81.85
2022-11-19T08:00:06.143Z,82.76
2022-11-19T08:03:14.914Z,82.95
2022-11-19T08:06:18.840Z,83.17
2022-11-19T08:09:21.811Z,83.90
2022-11-19T08:12:24.519Z,84.54
2022-11-19T08:15:26.891Z,85.36
2022-11-19T08:18:31.467Z,84.96
2022-11-19T08:21:34.645Z,84.59
2022-11-19T08:24:37.550Z,85.32
2022-11-19T08:27:39.943Z,84.24
2022-11-19T08:30:42.583Z,83.93
2022-11-19T08:33:45.173Z,84.00
2022-11-19T08:36:47.641Z,83.23
2022-11-19T08:39:50.107Z,83.69
2022-11-19T08:43:02.040Z,83.22
2022-11-19T08:46:04.608Z,82.37
2022-11-19T08:49:07.749Z,83.01
2022-11-19T08:52:10.185Z,82.71
2022-11-19T08:55:13.356Z,82.52
2022-11-19T08:58:15.988Z,81.88
2022-11-19T09:01:18.965Z,82.11
2022-11-19T09:04:22.041Z,81.27
2022-11-19T09:07:24.835Z,80.74
2022-11-19T09:10:27.612Z,79.24
2022-11-19T09:13:30.126Z,79.76
2022-11-19T09:16:32.529Z,79.02
2022-11-19T09:19:35.250Z,79.55
2022-11-19T09:22:39.088Z,81.05
2022-11-19T09:25:41.524Z,79.57
2022-11-19T09:28:44.783Z,78.92
2022-11-19T09:31:47.348Z,79.92
2022-11-19T09:34:49.752Z,81.70
2022-11-19T09:37:52.422Z,81.31
2022-11-19T09:40:56.567Z,81.43
2022-11-19T09:44:23.118Z,81.53
2022-11-19T09:47:55.525Z,81.35
2022-11-19T09:51:06.071Z,81.31
2022-11-19T09:54:16.238Z,82.66
2022-11-19T09:57:32.224Z,83.89
2022-11-19T10:00:34.752Z,82.20
2022-11-19T10:03:41.273Z,81.87
2022-11-19T10:07:15.114Z,82.16
2022-11-19T10:10:34.584Z,80.58
2022-11-19T10:13:46.226Z,80.34
2022-11-19T10:17:19.101Z,80.41
2022-11-19T10:20:40.175Z,81.03
2022-11-19T10:24:01.157Z,80.15
2022-11-19T10:27:14.773Z,80.56
2022-11-19T10:30:21.181Z,79.76
2022-11-19T10:33:40.750Z,79.34
2022-11-19T10:36:49.433Z,77.94
2022-11-19T10:39:59.154Z,76.79
2022-11-19T10:43:37.084Z,75.22
2022-11-19T10:46:48.918Z,76.25
2022-11-19T10:49:54.181Z,74.19
2022-11-19T10:52:59.739Z,76.37
2022-11-19T10:56:24.074Z,76.14
2022-11-19T10:59:29.002Z,74.69
2022-11-19T11:02:44.331Z,76.78
2022-11-19T11:06:06.424Z,76.59
2022-11-19T11:09:14.038Z,77.70
2022-11-19T11:12:41.484Z,77.70
2022-11-19T11:15:52.301Z,76.29
2022-11-19T11:18:58.311Z,77.10
2022-11-19T11:22:00.807Z,77.60
2022-11-19T11:25:07.314Z,77.29
2022-11-19T11:28:20.228Z,75.34
2022-11-19T11:31:38.261Z,74.34
2022-11-19T11:34:43.850Z,72.16
2022-11-19T11:37:48.255Z,73.45
2022-11-19T11:42:02.039Z,75.18
2022-11-19T11:44:37.859Z,73.10
2022-11-19T11:47:40.461Z,72.74
2022-11-19T11:50:46.518Z,71.24
2022-11-19T11:54:03.715Z,73.14
2022-11-19T11:57:18.353Z,74.27
2022-11-19T12:00:36.059Z,73.83
2022-11-19T12:03:55.677Z,73.76
2022-11-19T12:06:58.077Z,71.50
2022-11-19T12:10:09.599Z,73.02
2022-11-19T12:13:33.488Z,73.44
2022-11-19T12:16:42.513Z,73.11
2022-11-19T12:20:13.028Z,71.88
2022-11-19T12:23:33.508Z,70.82
2022-11-19T12:27:15.097Z,70.14
2022-11-19T12:30:29.526Z,69.35
2022-11-19T12:33:38.748Z,68.54
2022-11-19T12:37:02.986Z,68.94
2022-11-19T12:40:47.088Z,68.68
2022-11-19T12:44:27.999Z,69.48
2022-11-19T12:47:46.002Z,71.33
2022-11-19T12:51:13.220Z,70.48
2022-11-19T12:54:44.567Z,71.15
2022-11-19T12:58:14.852Z,71.18
2022-11-19T13:01:25.513Z,69.85
2022-11-19T13:04:42.757Z,70.02
2022-11-19T13:07:53.120Z,68.82
2022-11-19T13:11:36.705Z,68.88
2022-11-19T13:14:54.504Z,67.97
2022-11-19T13:18:02.203Z,68.39
2022-11-19T13:21:17.121Z,69.43
2022-11-19T13:24:29.467Z,68.94
2022-11-19T13:27:32.243Z,68.27
2022-11-19T13:30:35.615Z,67.81
2022-11-19T13:33:45.866Z,67.77
2022-11-19T13:37:16.047Z,68.70
2022-11-19T13:40:25.334Z,68.54
2022-11-19T13:43:46.228Z,67.84
2022-11-19T13:46:58.670Z,68.84
2022-11-19T13:50:17.072Z,69.62
2022-11-19T13:53:28.991Z,69.22
2022-11-19T13:56:41.783Z,70.13
2022-11-19T13:59:47.539Z,67.96
2022-11-19T14:03:25.111Z,67.13
2022-11-19T14:06:46.309Z,68.09
2022-11-19T14:10:13.036Z,66.72
2022-11-19T14:13:25.200Z,67.29
2022-11-19T14:17:01.619Z,66.99
2022-11-19T14:20:49.880Z,67.67
2022-11-19T14:24:10.932Z,67.89
2022-11-19T14:27:26.632Z,69.14
2022-11-19T14:31:01.793Z,68.02
2022-11-19T14:34:05.732Z,68.37
2022-11-19T14:37:29.644Z,68.34
2022-11-19T14:40:34.276Z,68.70
2022-11-19T14:44:08.463Z,68.69
2022-11-19T14:47:34.575Z,68.43
2022-11-19T14:50:37.196Z,68.53
2022-11-19T14:53:50.712Z,68.67
2022-11-19T14:57:03.854Z,68.70
2022-11-19T15:00:27.783Z,69.09
2022-11-19T15:03:30.819Z,69.25
2022-11-19T15:06:37.748Z,69.49
2022-11-19T15:10:04.286Z,69.82
2022-11-19T15:13:24.603Z,69.55
2022-11-19T15:16:28.376Z,69.54
2022-11-19T15:19:46.185Z,69.89
2022-11-19T15:23:28.800Z,70.68
2022-11-19T15:27:08.782Z,70.96
2022-11-19T15:30:19.843Z,70.86
2022-11-19T15:33:28.653Z,71.31
2022-11-19T15:36:32.535Z,71.50
2022-11-19T15:39:39.600Z,71.30
2022-11-19T15:43:11.357Z,71.42
2022-11-19T15:46:32.017Z,71.62
2022-11-19T15:49:36.754Z,72.69
2022-11-19T15:52:39.661Z,73.12
2022-11-19T15:56:02.377Z,73.54
2022-11-19T15:59:08.481Z,74.15
2022-11-19T16:02:21.144Z,73.81
2022-11-19T16:05:27.388Z,74.56
2022-11-19T16:08:30.663Z,75.34
2022-11-19T16:11:55.172Z,75.78
2022-11-19T16:15:35.978Z,75.88
2022-11-19T16:18:49.214Z,75.82
2022-11-19T16:21:57.409Z,75.30
2022-11-19T16:25:03.582Z,75.96
2022-11-19T16:28:12.309Z,77.05
2022-11-19T16:31:15.086Z,77.09
2022-11-19T16:34:31.394Z,77.29
2022-11-19T16:37:34.033Z,78.04
2022-11-19T16:40:55.535Z,77.57
2022-11-19T16:43:58.936Z,76.44
2022-11-19T16:47:07.840Z,76.80
2022-11-19T16:50:35.864Z,77.43
2022-11-19T16:53:47.561Z,78.24
2022-11-19T16:56:50.299Z,77.74
2022-11-19T16:59:57.764Z,78.20
2022-11-19T17:03:02.893Z,77.31
2022-11-19T17:06:07.477Z,77.42
2022-11-19T17:09:30.259Z,78.01
2022-11-19T17:12:34.650Z,77.66
2022-11-19T17:15:48.105Z,77.55
2022-11-19T17:18:50.783Z,77.03
2022-11-19T17:22:01.431Z,77.05
2022-11-19T17:25:04.759Z,76.55
2022-11-19T17:28:07.215Z,76.70
2022-11-19T17:31:18.494Z,76.68
2022-11-19T17:34:26.765Z,77.24
2022-11-19T17:37:29.178Z,77.51
2022-11-19T17:40:31.678Z,77.02
2022-11-19T17:43:55.563Z,75.89
2022-11-19T17:46:59.018Z,76.55
2022-11-19T17:50:01.663Z,77.48
2022-11-19T17:53:04.245Z,76.75
2022-11-19T17:56:16.423Z,77.21
2022-11-19T17:59:19.256Z,76.75
2022-11-19T18:02:22.155Z,76.70
2022-11-19T18:05:26.866Z,76.55
2022-11-19T18:08:29.980Z,76.50
2022-11-19T18:11:37.514Z,75.76
2022-11-19T18:14:39.954Z,75.42
2022-11-19T18:17:44.393Z,75.27
2022-11-19T18:20:46.877Z,76.32
2022-11-19T18:23:51.666Z,75.62
2022-11-19T18:26:54.437Z,75.23
2022-11-19T18:29:57.063Z,75.33
2022-11-19T18:32:59.747Z,75.52
2022-11-19T18:36:02.436Z,74.04
2022-11-19T18:39:05.073Z,73.56
2022-11-19T18:42:11.500Z,73.27
2022-11-19T18:45:14.162Z,73.80
2022-11-19T18:48:16.662Z,74.28
2022-11-19T18:51:19.713Z,74.27
2022-11-19T18:54:23.167Z,73.82
2022-11-19T18:57:25.720Z,75.02
2022-11-19T19:00:28.524Z,73.69
2022-11-19T19:03:31.347Z,73.49
2022-11-19T19:06:34.007Z,73.63
2022-11-19T19:09:37.665Z,74.01
2022-11-19T19:12:40.700Z,74.12
2022-11-19T19:15:43.265Z,74.69
2022-11-19T19:18:45.829Z,73.82
2022-11-19T19:21:48.666Z,74.05
2022-11-19T19:24:56.747Z,73.97
2022-11-19T19:28:00.662Z,74.35
2022-11-19T19:31:03.728Z,74.03
2022-11-19T19:34:06.836Z,74.95
2022-11-19T19:37:09.497Z,76.48
2022-11-19T19:40:12.479Z,77.17
2022-11-19T19:43:15.200Z,77.00
2022-11-19T19:46:20.218Z,77.43
2022-11-19T19:49:24.134Z,76.89
2022-11-19T19:52:27.041Z,77.01
2022-11-19T19:55:29.964Z,76.30
2022-11-19T19:58:32.726Z,75.88
2022-11-19T20:01:36.584Z,77.28
2022-11-19T20:04:40.214Z,77.12
2022-11-19T20:07:42.874Z,76.79
2022-11-19T20:10:46.254Z,76.93
2022-11-19T20:13:48.926Z,76.89
2022-11-19T20:16:51.795Z,76.38
2022-11-19T20:19:54.504Z,75.71
2022-11-19T20:22:57.633Z,75.24
2022-11-19T20:26:02.411Z,75.31
2022-11-19T20:29:06.653Z,75.60
2022-11-19T20:32:09.371Z,76.10
2022-11-19T20:35:11.951Z,76.47
2022-11-19T20:38:14.548Z,76.74
2022-11-19T20:41:37.374Z,77.28
2022-11-19T20:44:40.025Z,77.43
2022-11-19T20:47:42.754Z,77.51
2022-11-19T20:50:45.470Z,78.01
2022-11-19T20:53:47.988Z,78.49
2022-11-19T20:56:53.722Z,78.62
2022-11-19T20:59:56.501Z,78.41
2022-11-19T21:02:58.956Z,78.77
2022-11-19T21:06:03.209Z,78.88
2022-11-19T21:09:06.591Z,78.65
2022-11-19T21:12:09.466Z,78.55
2022-11-19T21:15:12.194Z,78.05
2022-11-19T21:18:15.408Z,77.69
2022-11-19T21:21:20.221Z,77.09
2022-11-19T21:24:22.680Z,77.02
2022-11-19T21:27:25.084Z,76.67
2022-11-19T21:30:28.841Z,75.87
2022-11-19T21:33:31.395Z,77.35
2022-11-19T21:36:34.061Z,78.34
2022-11-19T21:39:36.461Z,78.12
2022-11-19T21:42:39.191Z,78.08
2022-11-19T21:45:41.869Z,78.65
2022-11-19T21:48:45.785Z,78.79
2022-11-19T21:51:49.078Z,78.88
2022-11-19T21:54:51.715Z,79.07
2022-11-19T21:57:54.396Z,78.51
2022-11-19T22:01:01.846Z,79.54
2022-11-19T22:04:04.710Z,79.29
2022-11-19T22:07:07.312Z,78.27
2022-11-19T22:10:10.075Z,78.09
2022-11-19T22:13:12.439Z,78.59
2022-11-19T22:16:15.096Z,78.23
2022-11-19T22:19:17.699Z,78.15
2022-11-19T22:22:20.427Z,77.88
2022-11-19T22:25:22.818Z,78.10
2022-11-19T22:28:25.247Z,77.26
2022-11-19T22:31:27.873Z,77.17
2022-11-19T22:34:30.436Z,77.27
2022-11-19T22:37:33.288Z,78.81
2022-11-19T22:40:35.767Z,78.64
2022-11-19T22:43:39.337Z,78.52
2022-11-19T22:46:41.710Z,78.32
2022-11-19T22:49:44.317Z,77.90
2022-11-19T22:52:46.839Z,78.23
2022-11-19T22:55:49.317Z,77.18
2022-11-19T22:58:53.179Z,76.97
2022-11-19T23:01:55.586Z,76.14
2022-11-19T23:04:58.174Z,76.48
2022-11-19T23:08:01.378Z,76.31
2022-11-19T23:11:06.348Z,75.67
2022-11-19T23:14:12.697Z,75.74
2022-11-19T23:17:15.089Z,75.51
2022-11-19T23:20:18.284Z,75.67
2022-11-19T23:23:20.657Z,75.71
2022-11-19T23:26:25.416Z,76.39
2022-11-19T23:29:27.925Z,76.28
2022-11-19T23:32:30.378Z,76.18
2022-11-19T23:35:35.849Z,75.78
2022-11-19T23:38:39.708Z,76.52
2022-11-19T23:41:42.129Z,76.58
2022-11-19T23:44:44.933Z,74.68
2022-11-19T23:47:47.422Z,74.86
2022-11-19T23:50:49.813Z,75.82
2022-11-19T23:53:52.503Z,76.88
2022-11-19T23:56:54.909Z,76.12
2022-11-19T23:59:57.403Z,75.99
